Pasadena 2N

39° 08' 31"N, 76° 30' 27"W, Elevation 43 ft.
Eastern Time

Hourly observations for the last 72 hours

Date Time Temperature (°F) Humi-
dity

(%)
Wind
(mph)
Pressure Rain (in) Sun
(W/m2)
ET
(in)
Air Dew 6 Hour 1 Hr 3 Hr 6 Hr Day
Alt
(in)
Sea
Level

(mb)
Max Min
17 10:00 81.5 70.8 70 WNW 1 G 3 29.95 1014.2 0.00 564 0.009
17 09:00 78.0 70.2 77 WNW 0 G 2 29.94 1014.1 0.00 91 0.007
17 08:00 75.3 70.8 76.3 70.7 86 WSW 0 G 1 29.95 1014.3 0.00 188 0.005
17 07:00 71.3 68.2 90 WSW 0 G 1 29.93 1013.7 0.00 33 0.004
17 06:00 71.0 67.3 88 W 0 G 2 29.92 1013.4 0.00 5 0.004
17 05:00 74.4 68.2 81 W 0 G 3 29.88 1012.0 0.00 0 0.003
17 04:00 73.0 69.6 89 W 1 G 6 29.89 1012.1 0.00 0 0.003
17 03:00 74.9 70.8 87 SW 0 G 2 29.87 1011.4 0.00 0 0.002
17 02:00 76.3 71.1 80.2 72.6 84 SSW 0 G 4 29.86 1011.1 0.02 0.00 0 0.001
17 01:00 76.4 70.9 83 WSW 1 G 4 29.85 1010.8 0.00 0 0.000
17 00:00 74.9 70.8 87 S 2 G 9 29.84 1010.6 0.02 0 0.129
16 23:00 72.6 70.5 93 SW 1 G 2 29.84 1010.4 0.02 0.02 0 0.129
16 22:00 73.7 71.6 93 NE 0 G 2 29.83 1010.2 0.01 0.02 0 0.129
16 21:00 75.7 72.6 90 NE 0 G 1 29.82 1009.9 0.01 0.01 0 0.129
16 20:00 80.2 73.1 86.2 80.2 79 SSE 1 G 2 29.80 1009.3 0.00 14 0.128
16 19:00 83.5 73.9 73 S 1 G 9 29.80 1009.3 0.00 77 0.122
16 18:00 84.8 71.7 65 SW 2 G 8 29.81 1009.5 0.00 359 0.114
16 17:00 85.0 72.8 67 SE 1 G 7 29.81 1009.6 0.00 466 0.104
16 16:00 82.8 71.2 68 SW 1 G 10 29.82 1009.9 0.00 262 0.098
16 15:00 86.1 71.6 62 SSW 1 G 8 29.83 1010.4 0.00 770 0.081
16 14:00 84.6 70.2 84.8 70.4 62 W 2 G 10 29.84 1010.6 0.00 455 0.063
16 13:00 82.7 69.3 64 SSW 3 G 10 29.86 1011.4 0.00 504 0.052
16 12:00 82.8 69.8 65 SSE 4 G 9 29.87 1011.5 0.00 1049 0.037
16 11:00 79.2 66.9 66 S 2 G 11 29.87 1011.4 0.00 308 0.023
16 10:00 76.4 65.5 69 SSE 1 G 8 29.88 1011.8 0.00 515 0.017
16 09:00 73.3 62.9 70 S 2 G 6 29.88 1011.8 0.00 113 0.014
16 08:00 70.5 61.4 71.4 68.2 73 SSW 2 G 6 29.88 1012.0 0.00 86 0.012
16 07:00 68.3 58.9 72 S 1 G 8 29.89 1012.2 0.00 46 0.011
16 06:00 69.2 58.2 68 SSE 2 G 10 29.89 1012.1 0.00 11 0.010
16 05:00 70.5 58.2 65 SSE 1 G 9 29.89 1012.4 0.00 0 0.008
16 04:00 71.3 58.5 64 S 3 G 8 29.91 1012.7 0.00 0 0.006
16 03:00 71.1 59.2 66 SE 1 G 8 29.92 1013.2 0.00 0 0.004
16 02:00 70.5 59.4 75.7 70.5 68 S 1 G 7 29.94 1013.8 0.00 0 0.002
16 01:00 71.9 59.9 66 S 4 G 10 29.94 1014.1 0.00 0 0.000
16 00:00 72.0 60.5 67 SSE 2 G 10 29.95 1014.3 0.00 0 0.156
15 23:00 72.6 60.6 66 SSE 3 G 8 29.97 1014.8 0.00 0 0.154
15 22:00 71.7 61.0 69 SSE 1 G 6 29.98 1015.3 0.00 0 0.153
15 21:00 71.5 61.2 70 SSE 1 G 4 29.98 1015.3 0.00 0 0.152
15 20:00 75.7 59.9 84.2 75.7 58 SSE 2 G 5 29.99 1015.6 0.00 16 0.150
15 19:00 78.6 59.0 51 S 5 G 17 29.99 1015.7 0.00 86 0.145
15 18:00 80.5 58.4 47 S 2 G 12 29.99 1015.6 0.00 160 0.137
15 17:00 82.3 56.3 41 SSE 0 G 13 30.00 1015.8 0.00 172 0.120
15 16:00 82.2 57.5 43 SSW 3 G 16 30.01 1016.2 0.00 461 0.105
15 15:00 80.9 58.8 47 SSW 2 G 15 30.02 1016.6 0.00 336 0.086
15 14:00 82.9 61.8 82.9 63.8 49 NW 2 G 12 30.04 1017.2 0.00 940 0.061
15 13:00 80.6 61.4 52 SSW 2 G 14 30.08 1018.6 0.00 916 0.037
15 12:00 76.6 61.7 60 WSW 4 G 11 30.11 1019.5 0.00 909 0.018
15 11:00 69.8 59.6 70 SW 2 G 7 30.12 1019.9 0.00 403 0.012
15 10:00 68.9 58.3 69 S 1 G 8 30.13 1020.4 0.00 197 0.006
15 09:00 66.1 57.6 74 SSW 2 G 7 30.13 1020.5 0.00 195 0.002
15 08:00 63.8 57.5 63.8 55.3 80 W 1 G 4 30.13 1020.4 0.00 163 0.000
15 07:00 57.8 54.3 88 SE 0 G 3 30.12 1020.1 0.00 26 0.000
15 06:00 55.4 52.8 91 SSE 0 G 4 30.11 1019.6 0.00 7 0.000
15 05:00 57.3 53.8 88 SSE 0 G 2 30.10 1019.3 0.00 0 0.000
15 04:00 57.0 54.1 90 S 0 G 2 30.10 1019.4 0.00 0 0.000
15 03:00 57.1 53.9 89 SSE 0 G 2 30.11 1019.7 0.00 0 0.000
15 02:00 56.8 53.6 70.4 56.7 89 SSE 0 G 1 30.12 1020.0 0.00 0 0.000
15 01:00 57.1 53.9 89 SSE 0 G 1 30.12 1019.9 0.00 0 0.000
15 00:00 57.1 53.0 86 W 0 G 1 30.11 1019.8 0.00 0 0.176
14 23:00 58.0 52.9 83 Calm 30.10 1019.5 0.00 0 0.175
14 22:00 59.9 52.3 76 W 0 G 1 30.08 1018.8 0.00 0 0.174
14 21:00 64.3 51.9 64 Calm 30.06 1017.9 0.00 0 0.174
14 20:00 70.4 52.5 77.4 70.4 53 W 1 G 2 30.05 1017.5 0.00 12 0.172
14 19:00 73.7 49.2 42 W 3 G 10 30.04 1017.2 0.00 46 0.165
14 18:00 76.5 49.7 39 W 4 G 14 30.03 1017.0 0.00 429 0.151
14 17:00 77.0 49.5 38 W 4 G 12 30.03 1017.0 0.00 610 0.133
14 16:00 75.8 49.8 40 W 5 G 11 30.03 1017.1 0.00 756 0.111
14 15:00 74.2 52.7 47 W 4 G 13 30.03 1016.9 0.00 874 0.088
14 14:00 72.4 51.6 72.6 62.2 48 W 1 G 9 30.03 1017.0 0.00 970 0.065
14 13:00 70.5 53.1 54 WNW 4 G 22 30.04 1017.2 0.00 1028 0.044
14 12:00 69.3 57.0 65 NNW 1 G 16 30.03 1016.8 0.00 1097 0.028
14 11:00 65.5 52.1 62 W 6 G 17 30.01 1016.4 0.00 369 0.017

Data generated by WxSolution Version 1.9.1.6, Build 2018.07.01.